Weather at Bar Yehuda Airfield

Public forecast

Using degrees Celsius for public forecast. Weather courtesy of forecast.io.

Closest aviation weather report (METAR) to Bar Yehuda Airfield

Closest report is Queen Alia International Airport, 39.0 nm (72.2 km) NE. Retrieved 2022/08/10 15:00 UTC (1 hour ago):

OJAI 101500Z 30013KT 5000 HZ NSC 30/17 Q1009 NOSIG

Closest aviation forecast (TAF) to Bar Yehuda Airfield

Closest forecast is Queen Alia International Airport, 39.0 nm (72.2 km) NE. Retrieved 2022/08/10 12:15 UTC (4 hours ago):

TAF TAF OJAI 101100Z 1012/1118 27012KT 5000 HZ NSC PROB30 TEMPO 1012/1018 28018KT 4000 BLDU PROB30 TEMPO 1101/1106 3000 BR